createdAt,value
2017-09-21T00:00:52.705Z,0.00
2017-09-21T00:01:52.704Z,0.00
2017-09-21T00:02:52.702Z,0.00
2017-09-21T00:03:52.695Z,0.00
2017-09-21T00:04:52.694Z,0.00
2017-09-21T00:05:52.691Z,0.00
2017-09-21T00:06:52.687Z,0.00
2017-09-21T00:07:52.689Z,0.00
2017-09-21T00:08:52.689Z,0.00
2017-09-21T00:09:52.685Z,0.00
2017-09-21T00:10:52.682Z,0.00
2017-09-21T00:11:52.680Z,0.00
2017-09-21T00:12:52.677Z,0.00
2017-09-21T00:13:52.674Z,0.00
2017-09-21T00:14:52.672Z,0.00
2017-09-21T00:15:52.708Z,0.00
2017-09-21T00:16:52.669Z,0.00
2017-09-21T00:17:52.668Z,0.00
2017-09-21T00:18:52.663Z,0.00
2017-09-21T00:19:52.667Z,0.00
2017-09-21T00:20:52.661Z,0.00
2017-09-21T00:21:52.661Z,0.00
2017-09-21T00:22:52.655Z,0.00
2017-09-21T00:23:52.653Z,0.00
2017-09-21T00:24:52.651Z,0.00
2017-09-21T00:25:52.648Z,0.00
2017-09-21T00:26:52.647Z,0.00
2017-09-21T00:27:52.646Z,0.00
2017-09-21T00:28:52.641Z,0.00
2017-09-21T00:29:52.639Z,0.00
2017-09-21T00:30:52.647Z,0.00
2017-09-21T00:31:52.642Z,0.00
2017-09-21T00:32:52.634Z,0.00
2017-09-21T00:33:52.635Z,0.00
2017-09-21T00:34:52.628Z,0.00
2017-09-21T00:35:52.624Z,0.00
2017-09-21T00:36:52.625Z,0.00
2017-09-21T00:37:52.622Z,0.00
2017-09-21T00:38:52.620Z,0.00
2017-09-21T00:39:52.618Z,0.00
2017-09-21T00:40:52.618Z,0.00
2017-09-21T00:41:52.612Z,0.00
2017-09-21T00:42:52.610Z,0.00
2017-09-21T00:43:52.609Z,0.00
2017-09-21T00:44:52.610Z,0.00
2017-09-21T00:45:52.604Z,0.00
2017-09-21T00:46:52.603Z,0.00
2017-09-21T00:47:52.598Z,0.00
2017-09-21T00:48:52.598Z,0.00
2017-09-21T00:49:52.595Z,0.00
2017-09-21T00:50:52.591Z,0.00
2017-09-21T00:51:52.592Z,0.00
2017-09-21T00:52:52.589Z,0.00
2017-09-21T00:53:52.595Z,0.00
2017-09-21T00:54:52.591Z,0.00
2017-09-21T00:55:52.583Z,0.00
2017-09-21T00:56:52.582Z,0.00
2017-09-21T00:57:52.581Z,0.00
2017-09-21T00:58:52.588Z,0.00
2017-09-21T00:59:52.576Z,0.00
2017-09-21T01:00:52.573Z,0.00
2017-09-21T01:01:52.572Z,0.00
2017-09-21T01:02:52.564Z,0.00
2017-09-21T01:03:52.566Z,0.00
2017-09-21T01:04:52.567Z,0.00
2017-09-21T01:05:52.563Z,0.00
2017-09-21T01:06:52.562Z,0.00
2017-09-21T01:07:52.565Z,0.00
2017-09-21T01:08:52.571Z,0.00
2017-09-21T01:09:52.555Z,0.00
2017-09-21T01:10:52.556Z,0.00
2017-09-21T01:11:52.549Z,0.00
2017-09-21T01:12:52.549Z,0.00
2017-09-21T01:13:52.545Z,0.00
2017-09-21T01:14:52.545Z,0.00
2017-09-21T01:15:52.549Z,0.00
2017-09-21T01:16:52.545Z,0.00
2017-09-21T01:17:52.538Z,0.00
2017-09-21T01:18:52.535Z,0.00
2017-09-21T01:19:52.534Z,0.00
2017-09-21T01:20:52.529Z,0.00
2017-09-21T01:21:52.530Z,0.00
2017-09-21T01:22:52.537Z,0.00
2017-09-21T01:23:52.525Z,0.00
2017-09-21T01:24:52.526Z,0.00
2017-09-21T01:25:52.519Z,0.00
2017-09-21T01:26:52.518Z,0.00
2017-09-21T01:27:52.511Z,0.00
2017-09-21T01:28:52.514Z,0.00
2017-09-21T01:29:52.512Z,0.00
2017-09-21T01:30:52.512Z,0.00
2017-09-21T01:31:52.505Z,0.00
2017-09-21T01:32:52.502Z,0.00
2017-09-21T01:33:52.526Z,0.00
2017-09-21T01:34:52.505Z,0.00
2017-09-21T01:35:52.500Z,0.00
2017-09-21T01:36:52.496Z,0.00
2017-09-21T01:37:52.494Z,0.00
2017-09-21T01:38:52.497Z,0.00
2017-09-21T01:39:52.490Z,0.00
2017-09-21T01:40:52.488Z,0.00
2017-09-21T01:41:52.487Z,0.00
2017-09-21T01:42:52.485Z,0.00
2017-09-21T01:43:52.483Z,0.00
2017-09-21T01:44:52.479Z,0.00
2017-09-21T01:45:52.479Z,0.00
2017-09-21T01:46:52.475Z,0.00
2017-09-21T01:47:52.475Z,0.00
2017-09-21T01:48:52.472Z,0.00
2017-09-21T01:49:52.469Z,0.00
2017-09-21T01:50:52.466Z,0.00
2017-09-21T01:51:52.465Z,0.00
2017-09-21T01:52:52.463Z,0.00
2017-09-21T01:53:52.461Z,0.00
2017-09-21T01:54:52.458Z,0.00
2017-09-21T01:55:52.457Z,0.00
2017-09-21T01:56:52.460Z,0.00
2017-09-21T01:57:52.448Z,0.00
2017-09-21T01:58:52.460Z,0.00
2017-09-21T01:59:52.448Z,0.00
2017-09-21T02:00:52.448Z,0.00
2017-09-21T02:01:52.438Z,0.00
2017-09-21T02:02:52.440Z,0.00
2017-09-21T02:03:52.436Z,0.00
2017-09-21T02:04:52.455Z,0.00
2017-09-21T02:05:52.434Z,0.00
2017-09-21T02:06:52.432Z,0.00
2017-09-21T02:07:52.431Z,0.00
2017-09-21T02:08:52.429Z,0.00
2017-09-21T02:09:52.438Z,0.00
2017-09-21T02:10:52.429Z,0.00
2017-09-21T02:11:52.434Z,0.00
2017-09-21T02:12:52.427Z,0.00
2017-09-21T02:13:52.416Z,0.00
2017-09-21T02:14:52.419Z,0.00
2017-09-21T02:15:52.415Z,0.00
2017-09-21T02:16:52.410Z,0.00
2017-09-21T02:17:52.407Z,0.00
2017-09-21T02:18:52.408Z,0.00
2017-09-21T02:19:52.404Z,0.00
2017-09-21T02:20:52.403Z,0.00
2017-09-21T02:21:52.404Z,0.00
2017-09-21T02:22:52.399Z,0.00
2017-09-21T02:23:52.395Z,0.00
2017-09-21T02:24:52.394Z,0.00
2017-09-21T02:25:52.393Z,0.00
2017-09-21T02:26:52.394Z,0.00
2017-09-21T02:27:52.389Z,0.00
2017-09-21T02:28:52.386Z,0.00
2017-09-21T02:29:52.385Z,0.00
2017-09-21T02:30:52.382Z,0.00
2017-09-21T02:31:52.381Z,0.00
2017-09-21T02:32:52.375Z,0.00
2017-09-21T02:33:52.375Z,0.00
2017-09-21T02:34:52.374Z,0.00
2017-09-21T02:35:52.371Z,0.00
2017-09-21T02:36:52.370Z,0.00
2017-09-21T02:37:52.365Z,0.00
2017-09-21T02:38:52.369Z,0.00
2017-09-21T02:39:52.364Z,0.00
2017-09-21T02:40:52.361Z,0.00
2017-09-21T02:41:52.361Z,0.00
2017-09-21T02:42:52.354Z,0.00
2017-09-21T02:43:52.355Z,0.00
2017-09-21T02:44:52.353Z,0.00
2017-09-21T02:45:52.349Z,0.00
2017-09-21T02:46:52.350Z,0.00
2017-09-21T02:47:52.346Z,0.00
2017-09-21T02:48:52.352Z,0.00
2017-09-21T02:49:52.343Z,0.00
2017-09-21T02:50:52.339Z,0.00
2017-09-21T02:51:52.340Z,0.00
2017-09-21T02:52:52.336Z,0.00
2017-09-21T02:53:52.331Z,0.00
2017-09-21T02:54:52.331Z,0.00
2017-09-21T02:55:52.342Z,0.00
2017-09-21T02:56:52.329Z,0.00
2017-09-21T02:57:52.326Z,0.00
2017-09-21T02:58:52.324Z,0.00
2017-09-21T02:59:52.321Z,0.00
2017-09-21T03:00:52.319Z,0.00
2017-09-21T03:01:52.320Z,0.00
2017-09-21T03:02:52.313Z,0.00
2017-09-21T03:03:52.367Z,0.00
2017-09-21T03:04:52.311Z,0.00
2017-09-21T03:05:52.313Z,0.00
2017-09-21T03:06:52.308Z,0.00
2017-09-21T03:07:52.301Z,0.00
2017-09-21T03:08:52.300Z,0.00
2017-09-21T03:09:52.299Z,0.00
2017-09-21T03:10:52.308Z,0.00
2017-09-21T03:11:52.294Z,0.00
2017-09-21T03:12:52.294Z,0.00
2017-09-21T03:13:52.295Z,0.00
2017-09-21T03:14:52.288Z,0.00
2017-09-21T03:15:52.294Z,0.00
2017-09-21T03:16:52.281Z,0.00
2017-09-21T03:17:52.281Z,0.00
2017-09-21T03:18:52.278Z,0.00
2017-09-21T03:19:52.277Z,0.00
2017-09-21T03:20:52.274Z,0.00
2017-09-21T03:21:52.274Z,0.00
2017-09-21T03:22:52.271Z,0.00
2017-09-21T03:23:52.277Z,0.00
2017-09-21T03:24:52.267Z,0.00
2017-09-21T03:25:52.278Z,0.00
2017-09-21T03:26:52.273Z,0.00
2017-09-21T03:27:52.256Z,0.00
2017-09-21T03:28:52.265Z,0.00
2017-09-21T03:29:52.255Z,0.00
2017-09-21T03:30:52.270Z,0.00
2017-09-21T03:31:52.251Z,0.00
2017-09-21T03:32:52.249Z,0.00
2017-09-21T03:33:52.268Z,0.00
2017-09-21T03:34:52.247Z,0.00
2017-09-21T03:35:52.270Z,0.00
2017-09-21T03:36:52.241Z,0.00
2017-09-21T03:37:52.236Z,0.00
2017-09-21T03:38:52.236Z,0.00
2017-09-21T03:39:52.233Z,0.00
2017-09-21T03:40:52.230Z,0.00
2017-09-21T03:41:52.232Z,0.00
2017-09-21T03:42:52.226Z,0.00
2017-09-21T03:43:52.224Z,0.00
2017-09-21T03:44:52.222Z,0.00
2017-09-21T03:45:52.219Z,0.00
2017-09-21T03:46:52.218Z,0.00
2017-09-21T03:47:52.222Z,0.00
2017-09-21T03:48:52.213Z,0.00
2017-09-21T03:49:52.209Z,0.00
2017-09-21T03:50:52.210Z,0.00
2017-09-21T03:51:52.206Z,0.00
2017-09-21T03:52:52.205Z,0.00
2017-09-21T03:53:52.205Z,0.00
2017-09-21T03:54:52.201Z,0.00
2017-09-21T03:55:52.199Z,0.00
2017-09-21T03:56:52.196Z,0.00
2017-09-21T03:57:52.192Z,0.00
2017-09-21T03:58:52.193Z,0.00
2017-09-21T03:59:52.187Z,0.00
2017-09-21T04:00:52.186Z,0.00
2017-09-21T04:01:52.184Z,0.00
2017-09-21T04:02:52.187Z,0.00
2017-09-21T04:03:52.182Z,0.00
2017-09-21T04:04:52.179Z,0.00
2017-09-21T04:05:52.174Z,0.00
2017-09-21T04:06:52.172Z,0.00
2017-09-21T04:07:52.170Z,0.00
2017-09-21T04:08:52.174Z,0.00
2017-09-21T04:09:52.169Z,0.00
2017-09-21T04:10:52.164Z,0.00
2017-09-21T04:11:52.161Z,0.00
2017-09-21T04:12:52.154Z,0.00
2017-09-21T04:13:52.152Z,0.00
2017-09-21T04:14:52.155Z,0.00
2017-09-21T04:15:52.152Z,0.00
2017-09-21T04:16:52.152Z,0.00
2017-09-21T04:17:52.146Z,0.00
2017-09-21T04:18:52.144Z,0.00
2017-09-21T04:19:52.142Z,0.00
2017-09-21T04:20:52.139Z,0.00
2017-09-21T04:21:52.139Z,0.00
2017-09-21T04:22:52.136Z,0.00
2017-09-21T04:23:52.134Z,0.00
2017-09-21T04:24:52.132Z,0.00
2017-09-21T04:25:52.127Z,0.00
2017-09-21T04:26:52.125Z,0.00
2017-09-21T04:27:52.124Z,0.00
2017-09-21T04:28:52.121Z,0.00
2017-09-21T04:29:52.118Z,0.00
2017-09-21T04:30:52.117Z,0.00
2017-09-21T04:31:52.112Z,0.00
2017-09-21T04:32:52.113Z,0.00
2017-09-21T04:33:52.112Z,0.00
2017-09-21T04:34:52.106Z,0.00
2017-09-21T04:35:52.107Z,0.00
2017-09-21T04:36:52.101Z,0.00
2017-09-21T04:37:52.098Z,0.00
2017-09-21T04:38:52.109Z,0.00
2017-09-21T04:39:52.096Z,0.00
2017-09-21T04:40:52.096Z,0.00
2017-09-21T04:41:52.104Z,0.00
2017-09-21T04:42:52.088Z,0.00
2017-09-21T04:43:52.087Z,0.00
2017-09-21T04:44:52.094Z,0.00
2017-09-21T04:45:52.082Z,0.00
2017-09-21T04:46:52.086Z,0.00
2017-09-21T04:47:52.074Z,5.63
2017-09-21T04:48:52.076Z,5.63
2017-09-21T04:49:52.086Z,5.63
2017-09-21T04:50:52.070Z,5.63
2017-09-21T04:51:52.069Z,5.63
2017-09-21T04:52:52.065Z,5.63
2017-09-21T04:53:52.064Z,5.63
2017-09-21T04:54:52.088Z,5.63
2017-09-21T04:55:52.060Z,11.25
2017-09-21T04:56:52.058Z,11.25
2017-09-21T04:57:52.058Z,11.25
2017-09-21T04:58:52.054Z,11.25
2017-09-21T04:59:52.048Z,16.88
2017-09-21T05:00:52.051Z,16.88
2017-09-21T05:01:52.045Z,16.88
2017-09-21T05:02:52.044Z,22.50
2017-09-21T05:03:52.037Z,22.50
2017-09-21T05:04:52.038Z,28.13
2017-09-21T05:05:52.069Z,28.13
2017-09-21T05:06:52.041Z,28.13
2017-09-21T05:07:52.027Z,28.13
2017-09-21T05:08:52.031Z,33.75
2017-09-21T05:09:52.028Z,33.75
2017-09-21T05:10:52.032Z,33.75
2017-09-21T05:11:52.020Z,39.38
2017-09-21T05:12:52.022Z,45.00
2017-09-21T05:13:52.017Z,45.00
2017-09-21T05:14:52.013Z,50.63
2017-09-21T05:15:52.009Z,50.63
2017-09-21T05:16:52.013Z,56.25
2017-09-21T05:17:52.012Z,56.25
2017-09-21T05:18:52.015Z,61.88
2017-09-21T05:19:52.004Z,61.88
2017-09-21T05:20:52.002Z,67.50
2017-09-21T05:21:51.997Z,67.50
2017-09-21T05:22:52.001Z,73.13
2017-09-21T05:23:51.993Z,73.13
2017-09-21T05:24:51.995Z,73.13
2017-09-21T05:25:51.989Z,73.13
2017-09-21T05:26:51.989Z,73.13
2017-09-21T05:27:51.986Z,78.75
2017-09-21T05:28:51.984Z,78.75
2017-09-21T05:29:51.981Z,84.38
2017-09-21T05:30:51.976Z,90.00
2017-09-21T05:31:51.978Z,90.00
2017-09-21T05:32:51.975Z,95.63
2017-09-21T05:33:51.973Z,95.63
2017-09-21T05:34:51.973Z,101.25
2017-09-21T05:35:51.970Z,101.25
2017-09-21T05:36:51.969Z,101.25
2017-09-21T05:37:51.964Z,101.25
2017-09-21T05:38:51.970Z,106.88
2017-09-21T05:39:51.960Z,106.88
2017-09-21T05:40:51.957Z,106.88
2017-09-21T05:41:51.965Z,106.88
2017-09-21T05:42:51.952Z,112.50
2017-09-21T05:43:51.955Z,118.13
2017-09-21T05:44:51.951Z,129.38
2017-09-21T05:45:51.948Z,140.63
2017-09-21T05:46:51.944Z,146.25
2017-09-21T05:47:51.938Z,146.25
2017-09-21T05:48:51.942Z,151.88
2017-09-21T05:49:51.940Z,157.50
2017-09-21T05:50:51.935Z,157.50
2017-09-21T05:51:51.935Z,157.50
2017-09-21T05:52:51.936Z,163.13
2017-09-21T05:53:51.930Z,163.13
2017-09-21T05:54:51.928Z,168.75
2017-09-21T05:55:51.926Z,168.75
2017-09-21T05:56:51.924Z,174.38
2017-09-21T05:57:51.922Z,174.38
2017-09-21T05:58:51.921Z,180.00
2017-09-21T05:59:51.919Z,180.00
2017-09-21T06:00:51.921Z,185.63
2017-09-21T06:01:51.914Z,185.63
2017-09-21T06:02:51.915Z,185.63
2017-09-21T06:03:51.908Z,185.63
2017-09-21T06:04:51.910Z,185.63
2017-09-21T06:05:51.906Z,185.63
2017-09-21T06:06:51.908Z,185.63
2017-09-21T06:07:51.912Z,191.25
2017-09-21T06:08:51.898Z,196.88
2017-09-21T06:09:51.900Z,213.75
2017-09-21T06:10:51.897Z,219.38
2017-09-21T06:11:51.898Z,230.63
2017-09-21T06:12:51.906Z,225.00
2017-09-21T06:13:51.893Z,230.63
2017-09-21T06:14:51.895Z,230.63
2017-09-21T06:15:51.890Z,236.25
2017-09-21T06:16:51.886Z,236.25
2017-09-21T06:17:51.887Z,241.88
2017-09-21T06:18:51.889Z,241.88
2017-09-21T06:19:51.883Z,247.50
2017-09-21T06:20:51.885Z,247.50
2017-09-21T06:21:51.882Z,247.50
2017-09-21T06:22:51.881Z,253.13
2017-09-21T06:23:51.904Z,253.13
2017-09-21T06:24:51.875Z,253.13
2017-09-21T06:25:51.874Z,258.75
2017-09-21T06:26:51.872Z,264.38
2017-09-21T06:27:51.870Z,258.75
2017-09-21T06:28:51.885Z,264.38
2017-09-21T06:29:51.866Z,264.38
2017-09-21T06:30:51.868Z,270.00
2017-09-21T06:31:51.865Z,270.00
2017-09-21T06:32:51.894Z,275.63
2017-09-21T06:33:51.859Z,275.63
2017-09-21T06:34:51.861Z,281.25
2017-09-21T06:35:51.858Z,281.25
2017-09-21T06:36:51.857Z,275.63
2017-09-21T06:37:51.859Z,270.00
2017-09-21T06:38:51.855Z,258.75
2017-09-21T06:39:51.857Z,253.13
2017-09-21T06:40:51.856Z,253.13
2017-09-21T06:41:51.850Z,258.75
2017-09-21T06:42:51.852Z,264.38
2017-09-21T06:43:51.850Z,264.38
2017-09-21T06:44:51.852Z,264.38
2017-09-21T06:45:51.848Z,264.38
2017-09-21T06:46:51.845Z,275.63
2017-09-21T06:47:51.845Z,292.50
2017-09-21T06:48:51.849Z,309.38
2017-09-21T06:50:00.474Z,315.00
2017-09-21T06:51:45.223Z,326.25
2017-09-21T06:52:45.208Z,326.25
2017-09-21T06:53:45.239Z,337.50
2017-09-21T06:54:45.209Z,337.50
2017-09-21T06:55:45.202Z,343.13
2017-09-21T06:56:45.205Z,348.75
2017-09-21T06:57:45.202Z,360.00
2017-09-21T06:58:45.198Z,360.00
2017-09-21T06:59:45.200Z,360.00
2017-09-21T07:00:45.203Z,365.63
2017-09-21T07:01:45.199Z,382.50
2017-09-21T07:02:45.211Z,388.13
2017-09-21T07:03:45.198Z,393.75
2017-09-21T07:04:45.198Z,393.75
2017-09-21T07:05:45.197Z,399.38
2017-09-21T07:06:45.196Z,405.00
2017-09-21T07:07:45.195Z,405.00
2017-09-21T07:08:45.194Z,410.63
2017-09-21T07:09:45.192Z,416.25
2017-09-21T07:10:45.193Z,416.25
2017-09-21T07:11:45.197Z,410.63
2017-09-21T07:12:45.191Z,405.00
2017-09-21T07:13:45.188Z,399.38
2017-09-21T07:14:45.189Z,376.88
2017-09-21T07:15:45.187Z,343.13
2017-09-21T07:16:45.185Z,315.00
2017-09-21T07:17:45.186Z,292.50
2017-09-21T07:18:45.186Z,298.13
2017-09-21T07:19:45.186Z,320.63
2017-09-21T07:20:45.182Z,315.00
2017-09-21T07:21:45.179Z,292.50
2017-09-21T07:22:45.184Z,281.25
2017-09-21T07:23:45.182Z,275.63
2017-09-21T07:24:45.182Z,270.00
2017-09-21T07:25:45.181Z,270.00
2017-09-21T07:26:45.182Z,258.75
2017-09-21T07:27:45.181Z,230.63
2017-09-21T07:28:45.179Z,230.63
2017-09-21T07:29:45.185Z,230.63
2017-09-21T07:30:45.178Z,230.63
2017-09-21T07:31:45.175Z,219.38
2017-09-21T07:32:45.176Z,202.50
2017-09-21T07:33:45.181Z,185.63
2017-09-21T07:34:45.176Z,185.63
2017-09-21T07:35:45.176Z,202.50
2017-09-21T07:36:45.178Z,208.13
2017-09-21T07:37:45.213Z,213.75
2017-09-21T07:38:45.172Z,208.13
2017-09-21T07:39:45.190Z,213.75
2017-09-21T07:40:45.175Z,208.13
2017-09-21T07:41:45.170Z,208.13
2017-09-21T07:42:45.180Z,219.38
2017-09-21T07:43:45.165Z,236.25
2017-09-21T07:44:45.170Z,241.88
2017-09-21T07:45:45.168Z,258.75
2017-09-21T07:46:45.178Z,286.88
2017-09-21T07:47:45.175Z,309.38
2017-09-21T07:48:45.164Z,326.25
2017-09-21T07:49:45.168Z,354.38
2017-09-21T07:50:45.162Z,376.88
2017-09-21T07:51:45.163Z,399.38
2017-09-21T07:52:45.161Z,416.25
2017-09-21T07:53:45.162Z,421.88
2017-09-21T07:54:45.162Z,444.38
2017-09-21T07:55:45.159Z,472.50
2017-09-21T07:56:45.158Z,495.00
2017-09-21T07:57:45.169Z,511.88
2017-09-21T07:58:45.157Z,528.75
2017-09-21T07:59:45.156Z,540.00
2017-09-21T08:00:45.171Z,534.38
2017-09-21T08:01:45.154Z,534.38
2017-09-21T08:02:45.153Z,534.38
2017-09-21T08:03:45.155Z,528.75
2017-09-21T08:04:45.155Z,534.38
2017-09-21T08:05:45.154Z,534.38
2017-09-21T08:06:45.153Z,534.38
2017-09-21T08:07:45.153Z,528.75
2017-09-21T08:08:45.152Z,528.75
2017-09-21T08:09:45.150Z,528.75
2017-09-21T08:10:45.150Z,534.38
2017-09-21T08:11:45.149Z,534.38
2017-09-21T08:12:45.148Z,528.75
2017-09-21T08:13:45.154Z,506.25
2017-09-21T08:14:45.155Z,489.38
2017-09-21T08:15:45.152Z,489.38
2017-09-21T08:16:45.149Z,489.38
2017-09-21T08:17:45.154Z,489.38
2017-09-21T08:18:45.149Z,483.75
2017-09-21T08:19:45.150Z,489.38
2017-09-21T08:20:45.152Z,506.25
2017-09-21T08:21:45.149Z,528.75
2017-09-21T08:22:45.158Z,568.13
2017-09-21T08:23:45.148Z,613.13
2017-09-21T08:24:45.150Z,630.00
2017-09-21T08:25:45.147Z,663.75
2017-09-21T08:26:45.147Z,680.63
2017-09-21T08:27:45.147Z,703.13
2017-09-21T08:28:45.150Z,714.38
2017-09-21T08:29:45.162Z,720.00
2017-09-21T08:30:45.143Z,731.25
2017-09-21T08:31:45.148Z,742.50
2017-09-21T08:32:45.149Z,748.13
2017-09-21T08:33:45.146Z,759.38
2017-09-21T08:34:45.149Z,759.38
2017-09-21T08:35:45.158Z,759.38
2017-09-21T08:36:45.147Z,748.13
2017-09-21T08:37:45.148Z,748.13
2017-09-21T08:38:45.147Z,742.50
2017-09-21T08:39:45.149Z,753.75
2017-09-21T08:40:45.150Z,759.38
2017-09-21T08:41:45.172Z,770.63
2017-09-21T08:42:45.152Z,781.88
2017-09-21T08:43:45.151Z,776.25
2017-09-21T08:44:45.154Z,793.13
2017-09-21T08:45:45.150Z,770.63
2017-09-21T08:46:45.151Z,753.75
2017-09-21T08:47:45.154Z,748.13
2017-09-21T08:48:45.153Z,753.75
2017-09-21T08:49:45.157Z,753.75
2017-09-21T08:50:45.153Z,742.50
2017-09-21T08:51:45.159Z,742.50
2017-09-21T08:52:45.161Z,714.38
2017-09-21T08:53:45.156Z,703.13
2017-09-21T08:54:45.175Z,708.75
2017-09-21T08:55:45.163Z,703.13
2017-09-21T08:56:45.168Z,691.88
2017-09-21T08:57:45.162Z,663.75
2017-09-21T08:58:45.166Z,635.63
2017-09-21T08:59:45.162Z,607.50
2017-09-21T09:00:45.165Z,579.38
2017-09-21T09:01:45.175Z,568.13
2017-09-21T09:02:45.177Z,590.63
2017-09-21T09:03:45.167Z,613.13
2017-09-21T09:04:45.168Z,590.63
2017-09-21T09:05:45.170Z,562.50
2017-09-21T09:06:45.173Z,511.88
2017-09-21T09:07:45.173Z,489.38
2017-09-21T09:08:45.171Z,472.50
2017-09-21T09:09:45.174Z,472.50
2017-09-21T09:10:45.175Z,455.63
2017-09-21T09:11:45.175Z,438.75
2017-09-21T09:12:45.174Z,427.50
2017-09-21T09:13:45.173Z,427.50
2017-09-21T09:14:45.178Z,438.75
2017-09-21T09:15:45.178Z,455.63
2017-09-21T09:16:45.176Z,472.50
2017-09-21T09:17:45.179Z,506.25
2017-09-21T09:18:45.180Z,545.63
2017-09-21T09:19:45.181Z,562.50
2017-09-21T09:20:45.186Z,601.88
2017-09-21T09:21:45.188Z,613.13
2017-09-21T09:22:45.183Z,601.88
2017-09-21T09:23:45.184Z,585.00
2017-09-21T09:24:45.185Z,579.38
2017-09-21T09:25:45.184Z,568.13
2017-09-21T09:26:45.188Z,540.00
2017-09-21T09:27:45.187Z,489.38
2017-09-21T09:28:45.188Z,461.25
2017-09-21T09:29:45.190Z,461.25
2017-09-21T09:30:45.193Z,466.88
2017-09-21T09:31:45.191Z,450.00
2017-09-21T09:32:45.195Z,455.63
2017-09-21T09:33:45.193Z,506.25
2017-09-21T09:34:45.192Z,568.13
2017-09-21T09:35:45.202Z,585.00
2017-09-21T09:36:45.196Z,540.00
2017-09-21T09:37:45.199Z,506.25
2017-09-21T09:38:45.208Z,540.00
2017-09-21T09:39:45.202Z,590.63
2017-09-21T09:40:45.201Z,601.88
2017-09-21T09:41:45.231Z,568.13
2017-09-21T09:42:45.206Z,528.75
2017-09-21T09:43:45.205Z,483.75
2017-09-21T09:44:45.206Z,450.00
2017-09-21T09:45:45.208Z,450.00
2017-09-21T09:46:45.208Z,489.38
2017-09-21T09:47:45.211Z,540.00
2017-09-21T09:48:45.208Z,624.38
2017-09-21T09:49:45.237Z,720.00
2017-09-21T09:50:45.216Z,770.63
2017-09-21T09:51:45.215Z,821.25
2017-09-21T09:52:45.213Z,877.50
2017-09-21T09:53:45.235Z,916.88
2017-09-21T09:54:45.218Z,939.38
2017-09-21T09:55:45.224Z,922.50
2017-09-21T09:56:45.222Z,911.25
2017-09-21T09:57:45.225Z,905.63
2017-09-21T09:58:45.230Z,905.63
2017-09-21T09:59:45.225Z,900.00
2017-09-21T10:00:45.229Z,894.38
2017-09-21T10:01:45.229Z,877.50
2017-09-21T10:02:45.230Z,860.63
2017-09-21T10:03:45.232Z,905.63
2017-09-21T10:04:45.233Z,945.00
2017-09-21T10:05:45.235Z,945.00
2017-09-21T10:06:45.258Z,939.38
2017-09-21T10:07:45.239Z,922.50
2017-09-21T10:08:45.242Z,894.38
2017-09-21T10:09:45.242Z,883.13
2017-09-21T10:10:45.247Z,826.88
2017-09-21T10:11:45.249Z,731.25
2017-09-21T10:12:45.255Z,691.88
2017-09-21T10:13:45.250Z,703.13
2017-09-21T10:14:45.250Z,765.00
2017-09-21T10:15:45.254Z,798.75
2017-09-21T10:16:45.256Z,781.88
2017-09-21T10:17:45.255Z,798.75
2017-09-21T10:18:45.260Z,860.63
2017-09-21T10:19:45.258Z,933.75
2017-09-21T10:20:45.268Z,973.13
2017-09-21T10:21:45.266Z,978.75
2017-09-21T10:22:45.273Z,984.38
2017-09-21T10:23:45.271Z,973.13
2017-09-21T10:24:45.270Z,978.75
2017-09-21T10:25:45.278Z,967.50
2017-09-21T10:26:45.278Z,967.50
2017-09-21T10:27:45.279Z,973.13
2017-09-21T10:28:45.281Z,978.75
2017-09-21T10:29:45.281Z,978.75
2017-09-21T10:30:45.285Z,973.13
2017-09-21T10:31:45.287Z,973.13
2017-09-21T10:32:45.288Z,973.13
2017-09-21T10:33:45.291Z,950.63
2017-09-21T10:34:45.294Z,916.88
2017-09-21T10:35:45.301Z,905.63
2017-09-21T10:36:45.299Z,928.13
2017-09-21T10:37:45.301Z,911.25
2017-09-21T10:38:45.304Z,860.63
2017-09-21T10:39:45.307Z,804.38
2017-09-21T10:40:45.326Z,765.00
2017-09-21T10:41:45.318Z,748.13
2017-09-21T10:42:45.313Z,742.50
2017-09-21T10:43:45.317Z,714.38
2017-09-21T10:44:45.322Z,697.50
2017-09-21T10:45:45.324Z,680.63
2017-09-21T10:46:45.326Z,680.63
2017-09-21T10:47:45.326Z,725.63
2017-09-21T10:48:45.360Z,798.75
2017-09-21T10:49:45.329Z,871.88
2017-09-21T10:50:45.331Z,945.00
2017-09-21T10:51:45.339Z,1001.25
2017-09-21T10:52:45.335Z,1046.25
2017-09-21T10:53:45.340Z,1051.88
2017-09-21T10:54:45.354Z,1051.88
2017-09-21T10:55:45.349Z,1063.13
2017-09-21T10:56:45.343Z,1063.13
2017-09-21T10:57:45.346Z,1063.13
2017-09-21T10:58:45.353Z,1063.13
2017-09-21T10:59:45.350Z,1057.50
2017-09-21T11:00:45.377Z,1046.25
2017-09-21T11:01:45.351Z,1035.00
2017-09-21T11:02:45.360Z,1029.38
2017-09-21T11:03:45.398Z,1029.38
2017-09-21T11:04:45.366Z,1018.13
2017-09-21T11:05:45.482Z,1018.13
2017-09-21T11:06:45.374Z,1012.50
2017-09-21T11:07:45.381Z,1012.50
2017-09-21T11:08:45.379Z,1001.25
2017-09-21T11:09:45.398Z,990.00
2017-09-21T11:10:45.384Z,978.75
2017-09-21T11:11:45.384Z,973.13
2017-09-21T11:12:45.388Z,956.25
2017-09-21T11:13:45.393Z,939.38
2017-09-21T11:14:45.395Z,956.25
2017-09-21T11:15:45.400Z,984.38
2017-09-21T11:16:45.407Z,990.00
2017-09-21T11:17:45.406Z,1001.25
2017-09-21T11:18:45.408Z,1006.88
2017-09-21T11:19:45.410Z,990.00
2017-09-21T11:20:45.419Z,967.50
2017-09-21T11:21:45.414Z,984.38
2017-09-21T11:22:45.419Z,990.00
2017-09-21T11:23:45.424Z,990.00
2017-09-21T11:24:45.424Z,967.50
2017-09-21T11:25:45.427Z,939.38
2017-09-21T11:26:45.427Z,945.00
2017-09-21T11:27:45.432Z,973.13
2017-09-21T11:28:45.436Z,1012.50
2017-09-21T11:29:45.436Z,1029.38
2017-09-21T11:30:45.448Z,1040.63
2017-09-21T11:31:45.443Z,1040.63
2017-09-21T11:32:45.447Z,1051.88
2017-09-21T11:33:45.449Z,1068.75
2017-09-21T11:34:45.454Z,1085.63
2017-09-21T11:35:45.458Z,1085.63
2017-09-21T11:36:45.461Z,1080.00
2017-09-21T11:37:45.463Z,1051.88
2017-09-21T11:38:45.506Z,1029.38
2017-09-21T11:39:45.468Z,1001.25
2017-09-21T11:40:45.471Z,967.50
2017-09-21T11:41:45.481Z,928.13
2017-09-21T11:42:45.481Z,871.88
2017-09-21T11:43:45.511Z,855.00
2017-09-21T11:44:45.487Z,860.63
2017-09-21T11:45:45.490Z,866.25
2017-09-21T11:46:45.523Z,894.38
2017-09-21T11:47:45.499Z,922.50
2017-09-21T11:48:45.503Z,922.50
2017-09-21T11:49:45.507Z,922.50
2017-09-21T11:50:45.509Z,950.63
2017-09-21T11:51:45.554Z,995.63
2017-09-21T11:52:45.550Z,1018.13
2017-09-21T11:53:45.565Z,1023.75
2017-09-21T11:54:45.523Z,1023.75
2017-09-21T11:55:45.537Z,1023.75
2017-09-21T11:56:45.527Z,1029.38
2017-09-21T11:57:45.530Z,1006.88
2017-09-21T11:58:45.533Z,1018.13
2017-09-21T11:59:45.537Z,1063.13
2017-09-21T12:00:45.594Z,1046.25
2017-09-21T12:01:45.624Z,973.13
2017-09-21T12:02:45.546Z,916.88
2017-09-21T12:03:45.545Z,922.50
2017-09-21T12:04:45.555Z,950.63
2017-09-21T12:05:45.561Z,984.38
2017-09-21T12:06:45.558Z,1012.50
2017-09-21T12:07:45.568Z,1012.50
2017-09-21T12:08:45.568Z,1018.13
2017-09-21T12:09:45.607Z,1035.00
2017-09-21T12:10:45.574Z,1051.88
2017-09-21T12:11:45.595Z,1074.38
2017-09-21T12:12:45.577Z,1068.75
2017-09-21T12:13:45.585Z,1051.88
2017-09-21T12:14:45.624Z,1023.75
2017-09-21T12:15:45.603Z,984.38
2017-09-21T12:16:45.595Z,956.25
2017-09-21T12:17:45.607Z,961.88
2017-09-21T12:18:45.611Z,990.00
2017-09-21T12:19:45.609Z,1029.38
2017-09-21T12:20:45.613Z,1051.88
2017-09-21T12:21:45.617Z,1080.00
2017-09-21T12:22:45.623Z,1085.63
2017-09-21T12:23:45.628Z,1080.00
2017-09-21T12:24:45.629Z,1074.38
2017-09-21T12:25:45.639Z,1080.00
2017-09-21T12:26:45.639Z,1074.38
2017-09-21T12:27:45.646Z,1068.75
2017-09-21T12:28:45.643Z,1063.13
2017-09-21T12:29:45.674Z,1046.25
2017-09-21T12:30:45.657Z,1029.38
2017-09-21T12:31:45.654Z,1006.88
2017-09-21T12:32:45.657Z,984.38
2017-09-21T12:33:45.666Z,967.50
2017-09-21T12:34:45.672Z,928.13
2017-09-21T12:35:45.678Z,900.00
2017-09-21T12:36:45.679Z,849.38
2017-09-21T12:37:45.686Z,821.25
2017-09-21T12:38:45.692Z,832.50
2017-09-21T12:39:45.692Z,855.00
2017-09-21T12:40:45.697Z,871.88
2017-09-21T12:41:45.702Z,860.63
2017-09-21T12:42:45.703Z,826.88
2017-09-21T12:43:45.708Z,781.88
2017-09-21T12:44:45.721Z,748.13
2017-09-21T12:45:45.720Z,725.63
2017-09-21T12:46:45.723Z,708.75
2017-09-21T12:47:45.728Z,703.13